Time;durP1;ratioP1;P1;durP2;ratioP2;P2;SDS_P1;SDS_P2;PMS_P1;PMS_P2;Temp;Humidity;BMP_temperature;BMP_pressure;BME280_temperature;BME280_humidity;BME280_pressure;Samples;Min_cycle;Max_cycle;Signal;HPM_P1;HPM_P2
2023/03/07 00:00:37;;;;;;;36.57;22.50;;;2.00;99.90;;;;;;5006622;28;20190;-86
2023/03/07 00:03:03;;;;;;;35.77;22.50;;;2.00;99.90;;;;;;5005807;28;20695;-84
2023/03/07 00:05:30;;;;;;;38.47;22.43;;;2.00;99.90;;;;;;5006222;28;20191;-85
2023/03/07 00:07:57;;;;;;;35.47;21.00;;;2.00;99.90;;;;;;5006096;28;20211;-84
2023/03/07 00:10:23;;;;;;;38.33;21.87;;;2.00;99.90;;;;;;5004758;28;20180;-83
2023/03/07 00:12:49;;;;;;;33.87;21.30;;;2.00;99.90;;;;;;5001335;28;20184;-83
2023/03/07 00:15:16;;;;;;;34.80;20.63;;;2.00;99.90;;;;;;5002311;28;20302;-84
2023/03/07 00:17:41;;;;;;;36.10;21.07;;;2.00;99.90;;;;;;5019816;28;20270;-84
2023/03/07 00:20:10;;;;;;;38.47;22.03;;;2.00;99.90;;;;;;5001797;28;20215;-84
2023/03/07 00:22:36;;;;;;;38.20;22.33;;;2.00;99.90;;;;;;5002418;28;20619;-84
2023/03/07 00:25:03;;;;;;;36.53;20.80;;;2.00;99.90;;;;;;5020101;28;20196;-84
2023/03/07 00:27:30;;;;;;;37.87;21.67;;;2.00;99.90;;;;;;5003559;28;20204;-84
2023/03/07 00:29:56;;;;;;;40.40;23.27;;;2.00;99.90;;;;;;5004364;28;20218;-84
2023/03/07 00:32:22;;;;;;;36.50;20.87;;;2.00;99.90;;;;;;5003011;28;20187;-84
2023/03/07 00:34:48;;;;;;;33.43;20.70;;;2.10;99.90;;;;;;5022538;28;20283;-84
2023/03/07 00:37:14;;;;;;;38.27;22.00;;;2.10;99.90;;;;;;5005683;28;20207;-85
2023/03/07 00:39:41;;;;;;;35.47;20.17;;;2.10;99.90;;;;;;5005108;28;20218;-85
2023/03/07 00:42:07;;;;;;;35.13;22.27;;;2.10;99.90;;;;;;5005203;28;20267;-84
2023/03/07 00:44:33;;;;;;;35.37;20.73;;;2.10;99.90;;;;;;5005105;28;20227;-84
2023/03/07 00:46:59;;;;;;;32.53;21.37;;;2.10;99.90;;;;;;5004071;28;20195;-84
2023/03/07 00:49:25;;;;;;;32.90;20.97;;;2.10;99.90;;;;;;5003581;28;20180;-84
2023/03/07 00:51:50;;;;;;;30.47;19.47;;;2.10;99.90;;;;;;5003507;28;20225;-84
2023/03/07 00:54:16;;;;;;;34.37;20.67;;;2.10;99.90;;;;;;5003818;28;20282;-85
2023/03/07 00:56:42;;;;;;;35.40;21.57;;;2.10;99.90;;;;;;5004213;28;20176;-84
2023/03/07 00:59:08;;;;;;;37.47;20.77;;;2.20;99.90;;;;;;5003529;28;20183;-84
2023/03/07 01:01:34;;;;;;;28.73;20.03;;;2.20;99.90;;;;;;5004339;28;20172;-85
2023/03/07 01:04:00;;;;;;;33.07;20.23;;;2.20;99.90;;;;;;5004171;28;20267;-84
2023/03/07 01:06:28;;;;;;;32.13;20.13;;;2.20;99.90;;;;;;5004303;28;20207;-85
2023/03/07 01:08:59;;;;;;;35.27;20.97;;;2.30;99.90;;;;;;5023945;28;20540;-85
2023/03/07 01:11:26;;;;;;;35.13;21.10;;;2.30;99.90;;;;;;5005097;28;20176;-84
2023/03/07 01:13:58;;;;;;;32.60;21.27;;;2.30;99.90;;;;;;5003617;28;20593;-83
2023/03/07 01:16:27;;;;;;;34.73;22.30;;;2.40;99.90;;;;;;5004340;28;20180;-85
2023/03/07 01:18:59;;;;;;;37.63;22.50;;;2.40;99.90;;;;;;5003905;28;20186;-85
2023/03/07 01:21:36;;;;;;;36.17;23.20;;;2.40;99.90;;;;;;5021980;28;20164;-85
2023/03/07 01:24:06;;;;;;;33.67;20.73;;;2.50;99.90;;;;;;5004549;28;20235;-84
2023/03/07 01:26:33;;;;;;;33.17;21.73;;;2.50;99.90;;;;;;5022210;28;20161;-85
2023/03/07 01:29:02;;;;;;;38.27;22.10;;;2.50;99.90;;;;;;5004133;28;20708;-85
2023/03/07 01:31:31;;;;;;;38.27;22.83;;;2.50;99.90;;;;;;5004065;28;20262;-85
2023/03/07 01:33:57;;;;;;;37.83;21.50;;;2.50;99.90;;;;;;5003730;28;20209;-84
2023/03/07 01:36:29;;;;;;;31.53;20.70;;;2.50;99.90;;;;;;5021279;28;20167;-84
2023/03/07 01:39:06;;;;;;;32.57;20.53;;;2.50;99.90;;;;;;5021607;28;20161;-84
2023/03/07 01:41:36;;;;;;;33.37;20.17;;;2.50;99.90;;;;;;5004204;28;20230;-85
2023/03/07 01:44:10;;;;;;;34.07;22.30;;;2.60;99.90;;;;;;5003239;28;20206;-85
2023/03/07 01:46:52;;;;;;;30.60;19.40;;;2.60;99.90;;;;;;5003808;28;20171;-85
2023/03/07 01:49:28;;;;;;;29.37;19.50;;;2.60;99.90;;;;;;5004298;28;20176;-85
2023/03/07 01:52:01;;;;;;;34.77;21.27;;;2.60;99.90;;;;;;5022545;28;20163;-84
2023/03/07 01:54:29;;;;;;;30.73;20.37;;;2.60;99.90;;;;;;5004015;28;20195;-83
2023/03/07 01:56:56;;;;;;;35.20;20.33;;;2.60;99.90;;;;;;5003049;28;20190;-84
2023/03/07 01:59:31;;;;;;;30.40;20.23;;;2.70;99.90;;;;;;5003541;28;20186;-84
2023/03/07 02:02:00;;;;;;;27.40;19.80;;;2.70;99.90;;;;;;5003154;28;20176;-84
2023/03/07 02:04:59;;;;;;;29.00;18.53;;;2.70;99.90;;;;;;5002586;28;20214;-85
2023/03/07 02:07:32;;;;;;;27.80;18.10;;;2.70;99.90;;;;;;5003955;28;20213;-84
2023/03/07 02:09:59;;;;;;;21.87;17.87;;;2.70;99.90;;;;;;5021894;28;20170;-85
2023/03/07 02:12:24;;;;;;;28.57;19.43;;;2.70;99.90;;;;;;5003823;28;20551;-85
2023/03/07 02:14:51;;;;;;;23.93;18.17;;;2.80;99.90;;;;;;5003821;28;20203;-85
2023/03/07 02:17:17;;;;;;;26.43;20.20;;;2.80;99.90;;;;;;5021389;28;20179;-84
2023/03/07 02:20:10;;;;;;;28.80;17.80;;;2.80;99.90;;;;;;5003203;28;20226;-84
2023/03/07 02:22:36;;;;;;;23.77;18.30;;;2.80;99.90;;;;;;5002170;28;20211;-84
2023/03/07 02:25:24;;;;;;;26.57;18.03;;;2.80;99.90;;;;;;5001194;28;20231;-83
2023/03/07 02:27:52;;;;;;;23.50;17.27;;;2.90;99.90;;;;;;5000832;28;20200;-84
2023/03/07 02:30:18;;;;;;;23.30;17.00;;;2.90;99.90;;;;;;5001762;28;20243;-83
2023/03/07 02:32:44;;;;;;;31.43;18.80;;;2.90;99.90;;;;;;5019608;28;20739;-84
2023/03/07 02:35:17;;;;;;;23.50;17.43;;;2.90;99.90;;;;;;5002302;28;20196;-83
2023/03/07 02:37:46;;;;;;;25.03;17.87;;;2.90;99.90;;;;;;5001752;28;20210;-83
2023/03/07 02:40:15;;;;;;;24.60;18.37;;;2.90;99.90;;;;;;5001435;28;20226;-84
2023/03/07 02:42:42;;;;;;;26.03;18.37;;;2.90;99.90;;;;;;5000920;28;20179;-84
2023/03/07 02:45:12;;;;;;;22.67;16.90;;;2.90;99.90;;;;;;5000997;28;20218;-84
2023/03/07 02:47:39;;;;;;;20.60;16.17;;;3.00;99.90;;;;;;5001261;28;20303;-83
2023/03/07 02:50:05;;;;;;;24.03;16.40;;;3.00;99.90;;;;;;5001508;28;20188;-83
2023/03/07 02:52:31;;;;;;;23.33;15.93;;;3.00;99.90;;;;;;4999123;28;20179;-83
2023/03/07 02:54:57;;;;;;;21.27;16.40;;;3.00;99.90;;;;;;4999092;28;20591;-83
2023/03/07 02:57:23;;;;;;;22.00;15.67;;;3.00;99.90;;;;;;4999651;28;20183;-83
2023/03/07 02:59:49;;;;;;;21.53;16.63;;;3.00;99.90;;;;;;4999849;28;20667;-83
2023/03/07 03:02:15;;;;;;;18.20;14.90;;;3.00;99.90;;;;;;5000926;28;20187;-83
2023/03/07 03:04:40;;;;;;;21.27;15.73;;;3.00;99.90;;;;;;5000918;28;20230;-84
2023/03/07 03:07:06;;;;;;;21.40;15.60;;;3.00;99.90;;;;;;5001372;28;20234;-83
2023/03/07 03:09:32;;;;;;;19.60;15.03;;;3.10;99.90;;;;;;5001179;28;20187;-83
2023/03/07 03:11:58;;;;;;;20.27;15.77;;;3.00;99.90;;;;;;5001201;28;20656;-83
2023/03/07 03:14:24;;;;;;;19.93;15.00;;;3.10;99.90;;;;;;5020483;28;20199;-83
2023/03/07 03:16:51;;;;;;;19.63;15.63;;;3.10;99.90;;;;;;5004220;28;20183;-82
2023/03/07 03:19:17;;;;;;;21.00;15.97;;;3.10;99.90;;;;;;5001727;28;20255;-82
2023/03/07 03:21:43;;;;;;;20.63;15.47;;;3.10;99.90;;;;;;5001155;28;20644;-82
2023/03/07 03:24:10;;;;;;;20.13;15.40;;;3.10;99.90;;;;;;5017636;28;20306;-82
2023/03/07 03:26:37;;;;;;;20.87;15.43;;;3.10;99.90;;;;;;4999924;28;20182;-83
2023/03/07 03:29:04;;;;;;;19.03;15.83;;;3.10;99.90;;;;;;5000370;28;20234;-83
2023/03/07 03:31:31;;;;;;;20.77;16.27;;;3.10;99.90;;;;;;5000111;28;20184;-83
2023/03/07 03:33:57;;;;;;;18.83;15.67;;;3.10;99.90;;;;;;5000842;28;20257;-83
2023/03/07 03:36:24;;;;;;;18.13;14.43;;;3.10;99.90;;;;;;5000791;28;20233;-83
2023/03/07 03:38:59;;;;;;;18.27;15.13;;;3.10;99.90;;;;;;5001464;28;20184;-83
2023/03/07 03:41:25;;;;;;;16.80;13.90;;;3.10;99.90;;;;;;5016204;28;20139;-82
2023/03/07 03:43:51;;;;;;;15.77;14.07;;;3.10;99.90;;;;;;4999180;28;20203;-85
2023/03/07 03:46:18;;;;;;;14.30;12.33;;;3.10;99.90;;;;;;5000822;28;20193;-84
2023/03/07 03:48:50;;;;;;;18.50;13.40;;;3.10;99.90;;;;;;5001666;28;20215;-84
2023/03/07 03:51:16;;;;;;;15.13;12.40;;;3.10;99.90;;;;;;5019097;28;20165;-85
2023/03/07 03:53:41;;;;;;;13.47;11.87;;;3.10;99.90;;;;;;5000815;28;20254;-84
2023/03/07 03:56:10;;;;;;;14.50;12.70;;;3.10;99.90;;;;;;5000039;28;20204;-83
2023/03/07 03:58:37;;;;;;;14.33;11.93;;;3.10;99.90;;;;;;4999826;28;20180;-83
2023/03/07 04:01:06;;;;;;;15.50;12.60;;;3.00;99.90;;;;;;4999536;28;20238;-83
2023/03/07 04:03:33;;;;;;;14.27;12.27;;;3.00;99.90;;;;;;4999995;28;20208;-83
2023/03/07 04:06:01;;;;;;;14.53;12.93;;;3.00;99.90;;;;;;5000432;28;20191;-83
2023/03/07 04:08:27;;;;;;;14.80;12.40;;;2.90;99.90;;;;;;5002771;28;20250;-85
2023/03/07 04:10:52;;;;;;;14.47;12.23;;;2.90;99.90;;;;;;5004856;28;20599;-84
2023/03/07 04:13:18;;;;;;;15.07;12.40;;;2.90;99.90;;;;;;5004813;28;20224;-83
2023/03/07 04:15:44;;;;;;;14.00;11.70;;;2.90;99.90;;;;;;5004993;28;20184;-85
2023/03/07 04:18:10;;;;;;;14.30;12.60;;;2.90;99.90;;;;;;5005424;28;20202;-84
2023/03/07 04:20:35;;;;;;;15.13;12.37;;;2.90;99.90;;;;;;5004192;28;20242;-84
2023/03/07 04:23:01;;;;;;;15.07;12.63;;;2.90;99.90;;;;;;5004346;28;20585;-84
2023/03/07 04:25:27;;;;;;;14.87;11.83;;;2.90;99.90;;;;;;5005180;28;20179;-84
2023/03/07 04:27:52;;;;;;;13.70;12.17;;;3.00;99.90;;;;;;5007672;28;20214;-84
2023/03/07 04:30:18;;;;;;;15.23;12.30;;;3.00;99.90;;;;;;5008211;28;20167;-84
2023/03/07 04:32:44;;;;;;;16.80;12.67;;;3.00;99.90;;;;;;5010124;28;20184;-84
2023/03/07 04:35:10;;;;;;;12.93;11.57;;;3.00;99.90;;;;;;5006458;28;20196;-85
2023/03/07 04:37:39;;;;;;;13.47;11.73;;;3.00;99.90;;;;;;5007559;28;20187;-85
2023/03/07 04:40:05;;;;;;;14.40;12.87;;;3.00;99.90;;;;;;5007774;28;20211;-85
2023/03/07 04:42:31;;;;;;;13.50;11.97;;;3.00;99.90;;;;;;5007343;28;20186;-85
2023/03/07 04:44:57;;;;;;;16.07;12.93;;;3.00;99.90;;;;;;5006475;28;20208;-84
2023/03/07 04:47:22;;;;;;;17.57;12.93;;;3.00;99.90;;;;;;5006835;28;20207;-84
2023/03/07 04:49:48;;;;;;;18.33;14.57;;;3.00;99.90;;;;;;5006670;28;20298;-84
2023/03/07 04:52:14;;;;;;;18.37;15.37;;;2.90;99.90;;;;;;5007668;28;20263;-84
2023/03/07 04:54:39;;;;;;;17.13;14.43;;;3.00;99.90;;;;;;5008107;28;20274;-84
2023/03/07 04:57:05;;;;;;;17.87;14.50;;;3.00;99.90;;;;;;5009370;28;20188;-85
2023/03/07 04:59:31;;;;;;;20.57;16.03;;;3.00;99.90;;;;;;5010836;28;20182;-85
2023/03/07 05:01:57;;;;;;;19.80;15.63;;;3.00;99.90;;;;;;5028769;28;20187;-85
2023/03/07 05:04:22;;;;;;;24.97;17.73;;;3.00;99.90;;;;;;5011451;28;20203;-85
2023/03/07 05:06:48;;;;;;;20.87;16.57;;;3.00;99.90;;;;;;5029692;28;20187;-85
2023/03/07 05:09:14;;;;;;;23.97;18.07;;;3.00;99.90;;;;;;5028855;28;20180;-85
2023/03/07 05:11:40;;;;;;;25.83;19.97;;;3.00;99.90;;;;;;5011238;28;20267;-84
2023/03/07 05:14:05;;;;;;;29.10;20.13;;;3.00;99.90;;;;;;5010648;28;20234;-85
2023/03/07 05:16:32;;;;;;;27.73;19.03;;;3.10;99.90;;;;;;5010404;28;20183;-85
2023/03/07 05:18:59;;;;;;;26.93;18.87;;;3.10;99.90;;;;;;5010841;28;20172;-86
2023/03/07 05:21:25;;;;;;;28.27;21.53;;;3.10;99.90;;;;;;5027654;28;20176;-85
2023/03/07 05:23:50;;;;;;;26.23;20.53;;;3.10;99.90;;;;;;5010322;28;20280;-85
2023/03/07 05:26:16;;;;;;;30.07;21.57;;;3.10;99.90;;;;;;5011194;28;20176;-85
2023/03/07 05:28:42;;;;;;;25.30;19.13;;;3.10;99.90;;;;;;5010447;28;20668;-85
2023/03/07 05:31:07;;;;;;;27.93;21.53;;;3.10;99.90;;;;;;5010844;28;20172;-85
2023/03/07 05:33:33;;;;;;;28.00;21.07;;;3.10;99.90;;;;;;5010640;28;20688;-85
2023/03/07 05:36:00;;;;;;;29.03;20.20;;;3.10;99.90;;;;;;5009988;28;20211;-85
2023/03/07 05:38:26;;;;;;;35.17;22.33;;;3.00;99.90;;;;;;5011118;28;20644;-85
2023/03/07 05:40:52;;;;;;;27.77;21.23;;;3.00;99.90;;;;;;5010538;28;20184;-85
2023/03/07 05:43:18;;;;;;;30.43;20.37;;;3.10;99.90;;;;;;5009283;28;20186;-84
2023/03/07 05:45:43;;;;;;;28.13;21.00;;;3.10;99.90;;;;;;5006456;28;20187;-85
2023/03/07 05:48:09;;;;;;;28.30;21.03;;;3.10;99.90;;;;;;5004348;28;20199;-85
2023/03/07 05:50:37;;;;;;;27.63;20.93;;;3.10;99.90;;;;;;5005333;28;20614;-85
2023/03/07 05:53:03;;;;;;;28.43;20.63;;;3.10;99.90;;;;;;5023140;28;20199;-85
2023/03/07 05:55:29;;;;;;;24.37;19.63;;;3.10;99.90;;;;;;5008154;28;20652;-85
2023/03/07 05:57:55;;;;;;;28.77;20.10;;;3.10;99.90;;;;;;5011951;28;20191;-85
2023/03/07 06:00:21;;;;;;;29.23;20.97;;;3.00;99.90;;;;;;5028334;28;20206;-85
2023/03/07 06:02:47;;;;;;;26.43;18.93;;;3.00;99.90;;;;;;5007352;28;20183;-85
2023/03/07 06:05:13;;;;;;;27.40;20.07;;;3.00;99.90;;;;;;5006772;28;20334;-85
2023/03/07 06:07:38;;;;;;;27.30;18.77;;;3.00;99.90;;;;;;5006501;28;20239;-85
2023/03/07 06:10:05;;;;;;;28.00;18.93;;;3.00;99.90;;;;;;5000427;28;20270;-85
2023/03/07 06:12:31;;;;;;;24.97;19.77;;;3.00;99.90;;;;;;4999444;28;20179;-85
2023/03/07 06:14:57;;;;;;;26.23;18.73;;;3.00;99.90;;;;;;4999601;28;20200;-84
2023/03/07 06:17:23;;;;;;;25.17;19.03;;;3.00;99.90;;;;;;5017682;28;20189;-85
2023/03/07 06:19:48;;;;;;;24.57;17.33;;;2.90;99.90;;;;;;5018443;28;20546;-85
2023/03/07 06:22:14;;;;;;;26.17;18.97;;;2.90;99.90;;;;;;5000236;28;20200;-85
2023/03/07 06:24:40;;;;;;;22.97;17.77;;;2.90;99.90;;;;;;5000003;28;20282;-85
2023/03/07 06:27:05;;;;;;;22.43;17.47;;;2.90;99.90;;;;;;5002143;28;20239;-85
2023/03/07 06:29:31;;;;;;;21.33;17.00;;;2.90;99.90;;;;;;5001605;28;20188;-85
2023/03/07 06:31:57;;;;;;;24.27;17.97;;;2.90;99.90;;;;;;5000444;28;20205;-85
2023/03/07 06:34:23;;;;;;;26.70;19.27;;;2.90;99.90;;;;;;5000997;28;20200;-84
2023/03/07 06:36:48;;;;;;;27.23;19.93;;;2.80;99.90;;;;;;5000510;28;20179;-84
2023/03/07 06:39:19;;;;;;;25.10;18.60;;;2.90;99.90;;;;;;5001467;28;20179;-84
2023/03/07 06:41:47;;;;;;;29.10;18.80;;;2.80;99.90;;;;;;5018753;28;20156;-84
2023/03/07 06:44:13;;;;;;;29.33;19.63;;;2.90;99.90;;;;;;5018456;28;20200;-84
2023/03/07 06:46:39;;;;;;;28.33;20.37;;;2.90;99.90;;;;;;5018933;28;20181;-84
2023/03/07 06:49:05;;;;;;;29.13;20.23;;;2.90;99.90;;;;;;5001073;28;20239;-84
2023/03/07 06:51:31;;;;;;;29.83;19.80;;;2.90;99.90;;;;;;4997975;28;20230;-85
2023/03/07 06:53:56;;;;;;;28.43;18.67;;;2.90;99.90;;;;;;4998252;28;20205;-85
2023/03/07 06:56:22;;;;;;;28.73;19.67;;;2.90;99.90;;;;;;5001100;28;20604;-85
2023/03/07 06:58:48;;;;;;;25.37;19.87;;;2.90;99.90;;;;;;5000849;28;20191;-85
2023/03/07 07:01:22;;;;;;;32.27;20.67;;;3.00;99.90;;;;;;4999425;28;20226;-85
2023/03/07 07:03:48;;;;;;;27.60;19.47;;;3.00;99.90;;;;;;4999740;28;20315;-84
2023/03/07 07:06:14;;;;;;;30.10;20.53;;;3.00;99.90;;;;;;4999467;28;20550;-85
2023/03/07 07:08:40;;;;;;;30.73;21.13;;;3.00;99.90;;;;;;5017781;28;20207;-85
2023/03/07 07:11:06;;;;;;;28.17;19.17;;;3.00;99.90;;;;;;5001915;28;20548;-85
2023/03/07 07:13:32;;;;;;;28.73;20.37;;;3.00;99.90;;;;;;5019316;28;20203;-84
2023/03/07 07:16:03;;;;;;;30.27;19.37;;;3.10;99.90;;;;;;5018762;28;20183;-84
2023/03/07 07:18:29;;;;;;;27.27;20.23;;;3.10;99.90;;;;;;5000564;28;20183;-85
2023/03/07 07:20:55;;;;;;;28.00;20.10;;;3.10;99.90;;;;;;4999822;28;20183;-85
2023/03/07 07:23:21;;;;;;;28.63;19.67;;;3.10;99.90;;;;;;4997892;28;20223;-84
2023/03/07 07:25:47;;;;;;;29.30;20.60;;;3.10;99.90;;;;;;4998808;28;20184;-84
2023/03/07 07:28:12;;;;;;;28.30;21.53;;;3.10;99.90;;;;;;4999801;28;20623;-85
2023/03/07 07:30:38;;;;;;;31.30;20.73;;;3.10;99.90;;;;;;4998671;28;20175;-85
2023/03/07 07:33:04;;;;;;;32.23;21.77;;;3.10;99.90;;;;;;4998715;28;20171;-84
2023/03/07 07:35:30;;;;;;;31.10;20.77;;;3.10;99.90;;;;;;5017549;28;20247;-84
2023/03/07 07:37:55;;;;;;;32.87;21.87;;;3.10;99.90;;;;;;4999938;28;20630;-85
2023/03/07 07:40:21;;;;;;;33.10;20.97;;;3.10;99.90;;;;;;5016860;28;20188;-85
2023/03/07 07:42:53;;;;;;;26.77;20.50;;;3.20;99.90;;;;;;5000313;28;20599;-85
2023/03/07 07:45:23;;;;;;;32.17;20.73;;;3.20;99.90;;;;;;5020050;28;20200;-85
2023/03/07 07:47:50;;;;;;;30.00;20.27;;;3.20;99.90;;;;;;5019877;28;20210;-85
2023/03/07 07:50:17;;;;;;;27.07;19.50;;;3.20;99.90;;;;;;5019737;28;20188;-85
2023/03/07 07:52:43;;;;;;;29.40;21.10;;;3.20;99.90;;;;;;5002396;28;20195;-85
2023/03/07 07:55:09;;;;;;;31.10;19.87;;;3.20;99.90;;;;;;5002032;28;20203;-85
2023/03/07 07:57:36;;;;;;;32.83;21.40;;;3.20;99.90;;;;;;5002334;28;20648;-85
2023/03/07 08:00:03;;;;;;;27.80;21.50;;;3.20;99.90;;;;;;5002539;28;20192;-85
2023/03/07 08:02:29;;;;;;;29.07;22.23;;;3.20;99.90;;;;;;5002638;28;20184;-85
2023/03/07 08:04:55;;;;;;;29.67;22.00;;;3.20;99.90;;;;;;5002253;28;20208;-85
2023/03/07 08:07:21;;;;;;;31.20;22.67;;;3.20;99.90;;;;;;5002059;28;20212;-85
2023/03/07 08:09:47;;;;;;;30.27;22.53;;;3.20;99.90;;;;;;5002003;28;20180;-85
2023/03/07 08:12:13;;;;;;;36.10;23.63;;;3.20;99.90;;;;;;5019569;28;20660;-84
2023/03/07 08:14:39;;;;;;;33.43;23.80;;;3.20;99.90;;;;;;5002175;28;20200;-85
2023/03/07 08:17:05;;;;;;;32.90;23.60;;;3.20;99.90;;;;;;5002300;28;20270;-85
2023/03/07 08:19:31;;;;;;;33.53;23.80;;;3.20;99.90;;;;;;5001908;28;20257;-85
2023/03/07 08:21:57;;;;;;;35.57;23.57;;;3.20;99.90;;;;;;5019489;28;20172;-85
2023/03/07 08:24:23;;;;;;;36.57;24.17;;;3.20;99.90;;;;;;5001678;28;20207;-85
2023/03/07 08:26:49;;;;;;;35.97;25.80;;;3.20;99.90;;;;;;5019437;28;20191;-85
2023/03/07 08:29:15;;;;;;;34.30;22.67;;;3.20;99.90;;;;;;5002507;28;20608;-85
2023/03/07 08:31:44;;;;;;;37.50;24.20;;;3.30;99.90;;;;;;5020368;28;20171;-85
2023/03/07 08:34:11;;;;;;;33.50;23.90;;;3.30;99.90;;;;;;5002363;28;20200;-85
2023/03/07 08:36:38;;;;;;;35.80;22.77;;;3.30;99.90;;;;;;5019625;28;20236;-85
2023/03/07 08:39:04;;;;;;;34.00;24.13;;;3.30;99.90;;;;;;5002921;28;20214;-85
2023/03/07 08:41:30;;;;;;;39.30;24.73;;;3.30;99.90;;;;;;5002615;28;20176;-84
2023/03/07 08:43:55;;;;;;;36.53;25.40;;;3.30;99.90;;;;;;5001985;28;20219;-84
2023/03/07 08:46:22;;;;;;;34.03;24.57;;;3.30;99.90;;;;;;5002267;28;20187;-84
2023/03/07 08:48:48;;;;;;;39.80;27.10;;;3.30;99.90;;;;;;5019700;28;20699;-84
2023/03/07 08:51:16;;;;;;;43.53;27.30;;;3.30;99.90;;;;;;5020197;28;20187;-84
2023/03/07 08:53:43;;;;;;;40.43;29.33;;;3.30;99.90;;;;;;5002015;28;20195;-85
2023/03/07 08:56:11;;;;;;;37.80;26.83;;;3.30;99.90;;;;;;5002046;28;20226;-85
2023/03/07 08:58:37;;;;;;;39.70;26.63;;;3.40;99.90;;;;;;5002085;28;20640;-85
2023/03/07 09:01:05;;;;;;;43.50;28.40;;;3.40;99.90;;;;;;5001960;28;20191;-85
2023/03/07 09:03:31;;;;;;;42.13;28.17;;;3.40;99.90;;;;;;5002175;28;20294;-85
2023/03/07 09:05:57;;;;;;;39.23;27.23;;;3.40;99.90;;;;;;5002277;28;20172;-84
2023/03/07 09:08:22;;;;;;;43.90;26.80;;;3.40;99.90;;;;;;5003374;28;20215;-85
2023/03/07 09:10:48;;;;;;;41.97;27.27;;;3.40;99.90;;;;;;5001977;28;20184;-85
2023/03/07 09:13:14;;;;;;;37.97;25.03;;;3.40;99.90;;;;;;5002384;28;20180;-85
2023/03/07 09:15:40;;;;;;;40.13;27.20;;;3.40;99.90;;;;;;5001408;28;20270;-85
2023/03/07 09:18:10;;;;;;;42.57;26.07;;;3.40;99.90;;;;;;5001627;28;20187;-85
2023/03/07 09:20:39;;;;;;;33.53;24.50;;;3.40;99.90;;;;;;5002255;28;20658;-85
2023/03/07 09:23:06;;;;;;;37.87;25.20;;;3.40;99.90;;;;;;5001597;28;20262;-85
2023/03/07 09:25:32;;;;;;;37.80;24.10;;;3.40;99.90;;;;;;5000045;28;20187;-86
2023/03/07 09:27:58;;;;;;;33.03;23.37;;;3.40;99.90;;;;;;4999641;28;20261;-86
2023/03/07 09:30:25;;;;;;;30.20;22.00;;;3.40;99.90;;;;;;4999777;28;20187;-85
2023/03/07 09:32:51;;;;;;;30.33;20.80;;;3.40;99.90;;;;;;5012420;28;20230;-85
2023/03/07 09:35:17;;;;;;;26.30;19.20;;;3.30;99.90;;;;;;5012294;28;20200;-85
2023/03/07 09:37:43;;;;;;;24.87;19.40;;;3.30;99.90;;;;;;5010923;28;20191;-85
2023/03/07 09:40:17;;;;;;;26.43;19.63;;;3.30;99.90;;;;;;5011087;28;20187;-85
2023/03/07 09:42:49;;;;;;;25.40;19.07;;;3.30;99.90;;;;;;5010706;28;20183;-85
2023/03/07 09:45:46;;;;;;;23.07;17.40;;;3.20;99.90;;;;;;5008222;28;20290;-84
2023/03/07 09:48:11;;;;;;;22.87;17.53;;;3.20;99.90;;;;;;5003217;28;20211;-85
2023/03/07 09:51:07;;;;;;;25.67;17.80;;;3.20;99.90;;;;;;5000212;28;20571;-85
2023/03/07 09:53:44;;;;;;;24.97;17.27;;;3.20;99.90;;;;;;4994129;28;20273;-85
2023/03/07 09:56:53;;;;;;;21.83;17.03;;;3.20;99.90;;;;;;5018085;28;20578;-85
2023/03/07 09:59:33;;;;;;;19.20;15.70;;;3.10;99.90;;;;;;5000015;28;20184;-85
2023/03/07 10:02:42;;;;;;;13.93;12.43;;;3.00;99.90;;;;;;5000124;28;20171;-85
2023/03/07 10:05:37;;;;;;;15.03;13.17;;;2.60;99.90;;;;;;4938312;29;20208;-85
2023/03/07 10:08:04;;;;;;;15.97;13.10;;;2.40;99.90;;;;;;4923275;29;20210;-85
2023/03/07 10:10:38;;;;;;;17.17;13.57;;;2.30;99.90;;;;;;4977901;28;20243;-85
2023/03/07 10:13:29;;;;;;;18.30;14.77;;;2.20;99.90;;;;;;5002680;28;20183;-85
2023/03/07 10:16:03;;;;;;;16.70;13.60;;;2.10;99.90;;;;;;5020283;28;20164;-85
2023/03/07 10:18:37;;;;;;;19.37;15.47;;;2.00;99.90;;;;;;5002666;28;20179;-85
2023/03/07 10:21:03;;;;;;;17.77;14.57;;;1.90;99.90;;;;;;5001726;28;20175;-85
2023/03/07 10:23:44;;;;;;;15.27;13.67;;;2.00;99.90;;;;;;5001880;28;20269;-85
2023/03/07 10:26:11;;;;;;;15.97;12.77;;;2.00;99.90;;;;;;4999198;28;20178;-85
2023/03/07 10:28:40;;;;;;;13.77;12.10;;;1.90;99.90;;;;;;5000949;28;20250;-85
2023/03/07 10:31:38;;;;;;;14.27;12.13;;;1.90;99.90;;;;;;5001717;28;20206;-85
2023/03/07 10:34:23;;;;;;;10.97;9.87;;;1.90;99.90;;;;;;5001966;28;20203;-85
2023/03/07 10:36:51;;;;;;;11.43;10.23;;;1.90;99.90;;;;;;5002171;28;20168;-85
2023/03/07 10:39:31;;;;;;;10.70;9.60;;;1.80;99.90;;;;;;5001652;28;20663;-85
2023/03/07 10:41:57;;;;;;;10.43;9.37;;;1.70;99.90;;;;;;5001968;28;20171;-85
2023/03/07 10:44:22;;;;;;;12.27;10.97;;;1.70;99.90;;;;;;5002048;28;20269;-85
2023/03/07 10:46:57;;;;;;;14.97;10.83;;;1.80;99.90;;;;;;5002455;28;20183;-85
2023/03/07 10:49:31;;;;;;;12.00;10.80;;;1.70;99.90;;;;;;5002647;28;20174;-85
2023/03/07 10:52:21;;;;;;;15.80;13.83;;;1.70;99.90;;;;;;5018421;28;20219;-85
2023/03/07 10:54:47;;;;;;;16.13;14.43;;;1.70;99.90;;;;;;5001916;28;20195;-85
2023/03/07 10:57:14;;;;;;;15.03;13.07;;;1.70;99.90;;;;;;4998600;28;20183;-85
2023/03/07 10:59:49;;;;;;;14.50;12.33;;;1.70;99.90;;;;;;4998176;28;20179;-85
2023/03/07 11:02:40;;;;;;;16.87;12.97;;;1.70;99.90;;;;;;4998296;28;20171;-85
2023/03/07 11:05:30;;;;;;;15.17;12.47;;;1.60;99.90;;;;;;5015699;28;20672;-85
2023/03/07 11:07:56;;;;;;;14.47;11.60;;;1.60;99.90;;;;;;4998141;28;20210;-85
2023/03/07 11:10:35;;;;;;;12.07;10.63;;;1.60;99.90;;;;;;4999084;28;20176;-85
2023/03/07 11:13:16;;;;;;;10.87;9.77;;;1.70;99.90;;;;;;4998648;28;20255;-85
2023/03/07 11:15:43;;;;;;;11.20;10.07;;;1.60;99.90;;;;;;4998404;28;20183;-85
2023/03/07 11:18:27;;;;;;;11.47;10.27;;;1.60;99.90;;;;;;5002277;28;20186;-85
2023/03/07 11:20:53;;;;;;;12.10;10.53;;;1.60;99.90;;;;;;5002729;28;20179;-85
2023/03/07 11:23:29;;;;;;;12.83;10.40;;;1.60;99.90;;;;;;5002610;28;20199;-85
2023/03/07 11:26:12;;;;;;;14.20;11.73;;;1.60;99.90;;;;;;5003248;28;20255;-85
2023/03/07 11:28:39;;;;;;;13.27;11.50;;;1.60;99.90;;;;;;5002628;28;20203;-86
2023/03/07 11:31:27;;;;;;;14.07;11.50;;;1.70;99.90;;;;;;5003453;28;20176;-86
2023/03/07 11:34:22;;;;;;;14.63;12.53;;;1.60;99.90;;;;;;5004566;28;20195;-85
2023/03/07 11:37:00;;;;;;;19.43;14.30;;;1.70;99.90;;;;;;4997899;28;20191;-85
2023/03/07 11:39:44;;;;;;;18.70;14.13;;;1.70;99.90;;;;;;5022430;28;20222;-85
2023/03/07 11:42:37;;;;;;;18.17;13.27;;;1.70;99.90;;;;;;5004852;28;20171;-85
2023/03/07 11:45:17;;;;;;;15.33;12.90;;;1.70;99.90;;;;;;5004802;28;20200;-85
2023/03/07 11:47:55;;;;;;;13.23;11.87;;;1.80;99.90;;;;;;5021122;28;20187;-85
2023/03/07 11:50:28;;;;;;;14.37;12.83;;;1.80;99.90;;;;;;5003866;28;20168;-85
2023/03/07 11:53:13;;;;;;;17.13;13.67;;;1.60;99.90;;;;;;5002727;28;20186;-85
2023/03/07 11:56:00;;;;;;;18.10;13.90;;;1.50;99.90;;;;;;5004283;28;20169;-83
2023/03/07 11:58:32;;;;;;;18.00;14.33;;;1.60;99.90;;;;;;5002052;28;20167;-82
2023/03/07 12:00:57;;;;;;;19.87;15.97;;;1.60;99.90;;;;;;5002500;28;20183;-82
2023/03/07 12:03:45;;;;;;;21.13;17.97;;;1.70;99.90;;;;;;5002056;28;20188;-82
2023/03/07 12:06:38;;;;;;;23.67;17.30;;;1.70;99.90;;;;;;5002154;28;20187;-82
2023/03/07 12:09:10;;;;;;;24.43;17.93;;;1.70;99.90;;;;;;5001622;28;20204;-82
2023/03/07 12:12:13;;;;;;;23.60;18.13;;;1.80;99.90;;;;;;5002037;28;20719;-82
2023/03/07 12:15:05;;;;;;;24.33;18.53;;;1.90;99.90;;;;;;5001766;28;20633;-82
2023/03/07 12:17:49;;;;;;;23.90;18.37;;;1.90;99.90;;;;;;5019586;28;20203;-82
2023/03/07 12:20:41;;;;;;;25.83;18.97;;;1.80;99.90;;;;;;5001878;28;20187;-82
2023/03/07 12:23:14;;;;;;;25.17;20.07;;;1.80;99.90;;;;;;5001262;28;20745;-83
2023/03/07 12:25:59;;;;;;;27.60;20.87;;;1.80;99.90;;;;;;5001552;28;20172;-82
2023/03/07 12:28:31;;;;;;;28.80;20.57;;;1.80;99.90;;;;;;5001191;28;20200;-82
2023/03/07 12:31:09;;;;;;;26.60;21.23;;;1.90;99.90;;;;;;5001339;28;20230;-82
2023/03/07 12:34:06;;;;;;;26.33;20.40;;;1.90;99.90;;;;;;5001296;28;20571;-82
2023/03/07 12:37:04;;;;;;;28.93;20.87;;;1.80;99.90;;;;;;5000506;28;20262;-82
2023/03/07 12:39:35;;;;;;;27.03;19.90;;;1.80;99.90;;;;;;4999796;28;20187;-82
2023/03/07 12:42:23;;;;;;;27.90;20.40;;;1.80;99.90;;;;;;5000481;28;20212;-81
2023/03/07 12:44:56;;;;;;;29.40;20.77;;;1.90;99.90;;;;;;5000731;28;20195;-82
2023/03/07 12:47:37;;;;;;;25.57;20.53;;;1.80;99.90;;;;;;5000447;28;20190;-82
2023/03/07 12:50:13;;;;;;;24.10;17.67;;;1.70;99.90;;;;;;5000672;28;20172;-82
2023/03/07 12:52:50;;;;;;;22.60;18.63;;;1.70;99.90;;;;;;5000630;28;20164;-82